Airfield :
LOGIN :

Register | Disclaimer

   EN    FR    IT 

 










Legend :    VFR   Marginal VFR   IFR   Intensive IFR   Very Intensive IFR
Visi :
Ceiling :
>= 8 km
>= 3000ft
5 to 8 km
1000 to 3000 ft
1500m to 5 km
500 to 1000 ft
800 to 1500m
200 to 500 ft
< 800m
< 200 ft
Symbols :   Thunderstorms  Fog  Heavy snow  Heavy precipitations  Wind > 20 kt
SIGMETs :     Misc.  Thunderstorms  Icing  Turbulence  Mountain Waves  Volcanic Ashes






- Airport Elevation : 280 ft
- IATA code : FAE


EKVG - Vagar

CURRENT METAR :
  • 191550Z AUTO VRB04KT 5000 -RA OVC003/// 09/08 Q1018

EXPIRED METARs :
  • 191520Z AUTO 24008G22KT 180V330 5000 -RA OVC003/// 08/08 Q1018
  • 191450Z AUTO 23007KT 190V310 6000 -RA OVC002/// 08/08 Q1018
  • 191420Z AUTO VRB05G15KT 4600 -RA OVC002/// 08/08 Q1018
  • 191350Z AUTO 23009G23KT 180V290 3900 +DZ BR OVC002/// 08/08 Q1018
  • 191320Z AUTO 22011G23KT 160V260 2800 -RA OVC002/// 08/08 Q1018

TAF AMD TAF EKVG
Valid from the 19 at 15:00 until the 19 at 21:00 UTC


191506Z 1915/1921 20015KT 5000 BKN002
TEMPO 1915/1921 23022G40KT 1200 -RADZ BR BKN005



MET'MAP, your aeronautical weather chart ! - Copyright ORBIFLY December 2007 - Disclaimer

ORBIFLY MET'MAP TEAM :

Programming & Development : Alexandra Zaïnal
Concept & original design : Baudouin d'Aumeries
Assistance for programming : Marc-Olivier Méhu
Technical & hardware support : Manuel Goepfert

Contact : metmap@orbifly.com




SOURCES & CREDITS :

   NOAA